Saint Paul, MN

14:34 CST le 27 novembre 2014 (GMT -0600)
Saint Paul Downtown-Holman | Change Station
CLOSE
Current Station
Aéroport
Location: St. Paul,
Altitude: 702 ft
Stations météo à proximité

Alt. 702 ft 44.93 °N, 93.06 °W | Updated 41 minutes ago

Ciel dégagé
Ciel dégagé
10 ° F
Paraît 10 ° F
N
0
Vent Variable Vent de Nord

Aujourd'hui
Haut(e) -- | Bas -- ° F
--% Risque de précip.
Hier
Haut(e) -- | Bas -- ° F
Precip. -- pouce
7:25 AM 4:34 PM
Lune montante, 32% visible
Pression 30.52 pouce
Visibilité 10.0 Miles terrestres
Nuages Ciel dégagé
Point de rosée -3 ° F
Humidité 56%
Précipitations 0.00 pouce
Profondeur de la couche neigeuse Non disponible.
UV 1 sur 12
Pollen .10 sur 12
Qualité de l'air Non disponible.
Flu Activity Non disponible.
METAR KSTP 271953Z 00000KT 10SM CLR M12/M19 A3047 RMK AO2 SLP334 T11221194

More Conditions Fewer Conditions

Pression 30.52 pouce
Visibilité 10.0 Miles terrestres
Nuages Ciel dégagé
Point de rosée -3 ° F
Humidité 56%
Précipitations 0.00 pouce
Profondeur de la couche neigeuse Non disponible.
UV 1 sur 12
Pollen .10 sur 12
Qualité de l'air Non disponible.
Flu Activity Non disponible.
METAR KSTP 271953Z 00000KT 10SM CLR M12/M19 A3047 RMK AO2 SLP334 T11221194

More Conditions Fewer Conditions

10-Day Weather Forecast

Almanac

Astronomie

Nov. 27, 2014 Lever Coucher
Temps réel
Crépuscule civil
Crépuscule nautique
Crépuscule astronomique
Lune
Durée de lumière visible
Longueur du jour
Tomorrow will be .
, % of the Moon is Illuminated

Extrêmes aujourd'hui

State Highs State Lows

Community

WunderPhotos

Upload Photos

1,774,100 Photos téléchargées !

WunderBlogs® & News

Nearby

Qualité de l'air

  Qualité de l'air Indice de la qualité de l'air Polluant
Not available.

Épaisseur de neige

Station Depth Altitude

Activité sismique

Ville Distance Mag. Time & Date
Minimum magnitude displayed is 2.5.

Températures des eaux côtières

Lieu Température

Stations météo à proximité